Time;durP1;ratioP1;P1;durP2;ratioP2;P2;SDS_P1;SDS_P2;PMS_P1;PMS_P2;Temp;Humidity;BMP_temperature;BMP_pressure;BME280_temperature;BME280_humidity;BME280_pressure;Samples;Min_cycle;Max_cycle;Signal;HPM_P1;HPM_P2
2024/01/26 00:01:08;;;;;;;5.53;2.90;;;11.70;99.90;;;;;;5024847;28;20249;-62
2024/01/26 00:03:35;;;;;;;3.27;2.27;;;11.80;99.90;;;;;;5021607;28;20202;-62
2024/01/26 00:06:02;;;;;;;4.30;2.50;;;11.80;99.90;;;;;;5020954;28;20203;-61
2024/01/26 00:08:30;;;;;;;3.03;2.37;;;11.90;99.90;;;;;;5023097;28;20237;-62
2024/01/26 00:10:57;;;;;;;2.60;2.17;;;11.90;99.90;;;;;;5024500;28;20475;-62
2024/01/26 00:13:24;;;;;;;2.70;2.30;;;12.00;99.90;;;;;;5023060;28;20218;-62
2024/01/26 00:15:51;;;;;;;3.27;2.40;;;12.10;99.90;;;;;;5018014;28;20210;-62
2024/01/26 00:18:17;;;;;;;2.97;2.40;;;12.20;99.90;;;;;;5023875;28;20202;-62
2024/01/26 00:20:45;;;;;;;3.00;2.40;;;12.30;99.90;;;;;;5020865;28;20219;-62
2024/01/26 00:23:12;;;;;;;3.97;2.67;;;12.40;99.90;;;;;;5020879;28;20211;-63
2024/01/26 00:25:39;;;;;;;3.30;2.00;;;12.40;99.90;;;;;;5024298;28;20209;-63
2024/01/26 00:28:06;;;;;;;2.50;1.93;;;12.50;99.90;;;;;;5023926;28;20268;-61
2024/01/26 00:30:33;;;;;;;3.57;2.27;;;12.60;99.90;;;;;;5021568;28;20287;-61
2024/01/26 00:33:00;;;;;;;3.17;2.40;;;12.60;99.90;;;;;;5020725;28;20508;-62
2024/01/26 00:35:28;;;;;;;2.47;2.20;;;12.60;99.90;;;;;;5022299;28;20289;-62
2024/01/26 00:37:56;;;;;;;1.93;1.73;;;12.60;99.90;;;;;;5024008;28;20215;-62
2024/01/26 00:40:23;;;;;;;1.93;1.70;;;12.60;99.90;;;;;;5022823;28;20222;-61
2024/01/26 00:42:50;;;;;;;2.10;1.57;;;12.60;99.90;;;;;;5020755;28;20211;-61
2024/01/26 00:45:17;;;;;;;4.43;1.27;;;12.60;99.90;;;;;;5020828;28;20211;-62
2024/01/26 00:47:44;;;;;;;2.63;1.60;;;12.60;99.90;;;;;;5023782;28;20198;-62
2024/01/26 00:50:11;;;;;;;3.20;1.87;;;12.40;99.90;;;;;;5023733;28;20313;-62
2024/01/26 00:52:37;;;;;;;3.87;1.70;;;12.30;99.90;;;;;;5020724;28;20219;-63
2024/01/26 00:55:06;;;;;;;2.07;1.67;;;12.30;99.90;;;;;;5020444;28;20750;-63
2024/01/26 00:57:32;;;;;;;2.97;2.17;;;12.30;99.90;;;;;;5022543;28;20293;-61
2024/01/26 01:00:00;;;;;;;4.23;2.83;;;12.50;99.90;;;;;;5023654;28;20246;-61
2024/01/26 01:02:26;;;;;;;2.93;2.40;;;12.50;99.90;;;;;;5022037;28;20655;-61
2024/01/26 01:04:53;;;;;;;4.17;2.50;;;12.50;99.90;;;;;;5020109;28;20569;-65
2024/01/26 01:07:20;;;;;;;3.30;2.70;;;12.40;99.90;;;;;;5020669;28;20669;-63
2024/01/26 01:09:46;;;;;;;3.50;2.80;;;12.40;99.90;;;;;;5023697;28;20230;-61
2024/01/26 01:12:14;;;;;;;4.53;2.40;;;12.40;99.90;;;;;;5023676;28;20222;-61
2024/01/26 01:14:41;;;;;;;3.57;2.60;;;12.50;99.90;;;;;;5020180;28;20696;-62
2024/01/26 01:17:09;;;;;;;4.43;2.83;;;12.50;99.90;;;;;;5019871;28;20207;-62
2024/01/26 01:19:36;;;;;;;4.47;2.87;;;12.30;99.90;;;;;;5022667;28;20245;-62
2024/01/26 01:22:02;;;;;;;4.13;3.20;;;12.30;99.90;;;;;;5023746;28;20210;-61
2024/01/26 01:24:29;;;;;;;4.50;3.30;;;12.30;99.90;;;;;;5021521;28;20730;-61
2024/01/26 01:26:56;;;;;;;5.57;3.73;;;12.30;99.90;;;;;;5019926;28;20261;-62
2024/01/26 01:29:24;;;;;;;5.13;3.40;;;12.40;99.90;;;;;;5020840;28;20226;-62
2024/01/26 01:31:50;;;;;;;5.37;3.80;;;12.40;99.90;;;;;;5023289;28;20206;-62
2024/01/26 01:34:17;;;;;;;5.33;3.20;;;12.40;99.90;;;;;;5023203;28;20218;-62
2024/01/26 01:36:43;;;;;;;5.90;3.50;;;12.40;99.90;;;;;;5019835;28;20207;-62
2024/01/26 01:39:10;;;;;;;5.13;3.50;;;12.40;99.90;;;;;;5021665;28;20574;-62
2024/01/26 01:41:37;;;;;;;5.63;3.70;;;12.40;99.90;;;;;;5026548;28;20637;-62
2024/01/26 01:44:04;;;;;;;4.67;3.50;;;12.30;99.90;;;;;;5027488;28;20198;-63
2024/01/26 01:46:32;;;;;;;5.10;3.80;;;12.30;99.90;;;;;;5024889;28;20624;-61
2024/01/26 01:48:59;;;;;;;4.17;3.30;;;12.30;99.90;;;;;;5023977;28;20230;-61
2024/01/26 01:51:26;;;;;;;7.17;3.30;;;12.40;99.90;;;;;;5025027;28;20203;-61
2024/01/26 01:53:54;;;;;;;4.90;3.70;;;12.30;99.90;;;;;;5027159;28;20317;-62
2024/01/26 01:56:23;;;;;;;4.83;3.00;;;12.30;99.90;;;;;;5026277;28;20260;-63
2024/01/26 01:58:51;;;;;;;3.47;2.90;;;12.30;99.90;;;;;;5023414;28;20607;-61
2024/01/26 02:01:18;;;;;;;4.17;2.53;;;12.30;99.90;;;;;;5023861;28;20210;-61
2024/01/26 02:03:46;;;;;;;3.57;2.50;;;12.40;99.90;;;;;;5027063;28;20209;-61
2024/01/26 02:06:13;;;;;;;5.07;2.37;;;12.40;99.90;;;;;;5026843;28;20209;-61
2024/01/26 02:08:41;;;;;;;2.30;1.93;;;12.30;99.90;;;;;;5023630;28;20211;-61
2024/01/26 02:11:07;;;;;;;2.97;2.10;;;12.40;99.90;;;;;;5023458;28;20242;-61
2024/01/26 02:13:34;;;;;;;2.70;1.97;;;12.30;99.90;;;;;;5025328;28;20227;-61
2024/01/26 02:16:01;;;;;;;2.17;1.60;;;12.30;99.90;;;;;;5026752;28;20237;-61
2024/01/26 02:18:27;;;;;;;2.07;1.80;;;12.30;99.90;;;;;;5025162;28;20213;-61
2024/01/26 02:20:55;;;;;;;2.97;1.83;;;12.30;99.90;;;;;;5023247;28;20207;-61
2024/01/26 02:23:24;;;;;;;1.57;1.47;;;12.30;99.90;;;;;;5023781;28;20249;-62
2024/01/26 02:25:50;;;;;;;1.57;1.37;;;12.40;99.90;;;;;;5026428;28;20206;-62
2024/01/26 02:28:17;;;;;;;1.93;1.57;;;12.40;99.90;;;;;;5026353;28;20202;-62
2024/01/26 02:30:44;;;;;;;1.67;1.50;;;12.40;99.90;;;;;;5023136;28;20218;-62
2024/01/26 02:33:11;;;;;;;2.80;1.73;;;12.40;99.90;;;;;;5023397;28;20218;-62
2024/01/26 02:35:38;;;;;;;2.47;1.73;;;12.40;99.90;;;;;;5025405;28;20218;-62
2024/01/26 02:38:04;;;;;;;1.93;1.50;;;12.40;99.90;;;;;;5026186;28;20660;-62
2024/01/26 02:40:32;;;;;;;3.23;1.70;;;12.40;99.90;;;;;;5024340;28;20720;-62
2024/01/26 02:42:59;;;;;;;5.17;1.70;;;12.40;99.90;;;;;;5022774;28;20194;-62
2024/01/26 02:45:26;;;;;;;1.83;1.47;;;12.30;99.90;;;;;;5023981;28;20216;-62
2024/01/26 02:47:54;;;;;;;1.50;1.33;;;12.30;99.90;;;;;;5025991;28;20202;-62
2024/01/26 02:50:21;;;;;;;2.47;1.50;;;12.30;99.90;;;;;;5025036;28;20715;-62
2024/01/26 02:52:47;;;;;;;1.80;1.23;;;12.30;99.90;;;;;;5022575;28;20223;-62
2024/01/26 02:55:14;;;;;;;1.20;0.97;;;12.30;99.90;;;;;;5022556;28;20230;-62
2024/01/26 02:57:42;;;;;;;1.23;0.90;;;12.20;99.90;;;;;;5025452;28;20254;-62
2024/01/26 03:00:10;;;;;;;1.53;1.00;;;12.20;99.90;;;;;;5025781;28;20288;-62
2024/01/26 03:02:37;;;;;;;0.93;0.83;;;12.20;99.90;;;;;;5023391;28;20602;-62
2024/01/26 03:05:05;;;;;;;1.17;0.97;;;12.10;99.90;;;;;;5022373;28;20279;-62
2024/01/26 03:07:32;;;;;;;1.03;0.70;;;12.00;99.90;;;;;;5023871;28;20215;-62
2024/01/26 03:09:59;;;;;;;1.47;0.90;;;12.00;99.90;;;;;;5025582;28;20229;-62
2024/01/26 03:12:25;;;;;;;2.07;1.00;;;11.90;99.90;;;;;;5024987;28;20237;-62
2024/01/26 03:14:53;;;;;;;1.43;0.97;;;11.80;99.90;;;;;;5022298;28;20219;-62
2024/01/26 03:17:20;;;;;;;0.77;0.77;;;11.90;99.90;;;;;;5022186;28;20210;-62
2024/01/26 03:19:47;;;;;;;1.10;0.63;;;11.80;99.90;;;;;;5025447;28;20226;-62
2024/01/26 03:22:14;;;;;;;0.97;0.73;;;11.90;99.90;;;;;;5025376;28;20213;-62
2024/01/26 03:24:40;;;;;;;2.23;0.77;;;11.90;99.90;;;;;;5022684;28;20207;-62
2024/01/26 03:27:07;;;;;;;0.70;0.70;;;11.80;99.90;;;;;;5021865;28;20207;-62
2024/01/26 03:29:34;;;;;;;0.57;0.50;;;11.70;99.90;;;;;;5023655;28;20583;-62
2024/01/26 03:32:02;;;;;;;1.07;0.60;;;11.70;99.90;;;;;;5025291;28;20664;-62
2024/01/26 03:34:28;;;;;;;1.10;0.60;;;11.70;99.90;;;;;;5023964;28;20625;-62
2024/01/26 03:36:55;;;;;;;2.67;0.70;;;11.60;99.90;;;;;;5021652;28;20738;-62
2024/01/26 03:39:21;;;;;;;1.90;0.90;;;11.70;99.90;;;;;;5021955;28;20281;-62
2024/01/26 03:41:49;;;;;;;0.70;0.50;;;11.70;99.90;;;;;;5025233;28;20253;-62
2024/01/26 03:44:16;;;;;;;1.63;0.60;;;11.80;99.90;;;;;;5025000;28;20668;-62
2024/01/26 03:46:43;;;;;;;1.23;0.63;;;11.90;99.90;;;;;;5021531;28;20676;-62
2024/01/26 03:49:11;;;;;;;1.80;0.80;;;11.90;99.90;;;;;;5021663;28;20226;-62
2024/01/26 03:51:38;;;;;;;2.73;0.90;;;12.00;99.90;;;;;;5023802;28;20210;-62
2024/01/26 03:54:05;;;;;;;1.17;0.80;;;12.00;99.90;;;;;;5025084;28;20305;-62
2024/01/26 03:56:32;;;;;;;1.30;0.83;;;12.00;99.90;;;;;;5023101;28;20260;-62
2024/01/26 03:58:58;;;;;;;1.00;0.60;;;12.00;99.90;;;;;;5021656;28;20237;-62
2024/01/26 04:01:25;;;;;;;0.93;0.70;;;12.00;99.90;;;;;;5021213;28;20207;-62
2024/01/26 04:03:52;;;;;;;1.33;0.90;;;12.00;99.90;;;;;;5024823;28;20237;-62
2024/01/26 04:06:20;;;;;;;2.03;0.70;;;11.90;99.90;;;;;;5024347;28;20260;-62
2024/01/26 04:08:46;;;;;;;1.13;0.70;;;11.90;99.90;;;;;;5021235;28;20273;-62
2024/01/26 04:11:13;;;;;;;18.77;16.60;;;11.90;99.90;;;;;;5021288;28;20199;-62
2024/01/26 04:13:39;;;;;;;2.43;1.90;;;11.90;99.90;;;;;;5023580;28;20228;-62
2024/01/26 04:16:08;;;;;;;0.70;0.70;;;12.00;99.90;;;;;;5024183;28;20237;-62
2024/01/26 04:18:34;;;;;;;0.70;0.70;;;12.00;99.90;;;;;;5022748;28;20645;-62
2024/01/26 04:21:01;;;;;;;1.17;0.77;;;12.00;99.90;;;;;;5021119;28;20638;-62
2024/01/26 04:23:29;;;;;;;1.03;0.60;;;12.00;99.90;;;;;;5021836;28;20737;-62
2024/01/26 04:25:56;;;;;;;0.70;0.70;;;12.10;99.90;;;;;;5024116;28;20227;-63
2024/01/26 04:28:22;;;;;;;1.00;0.80;;;12.00;99.90;;;;;;5023923;28;20248;-62
2024/01/26 04:30:49;;;;;;;1.40;0.90;;;12.10;99.90;;;;;;5020816;28;20203;-62
2024/01/26 04:33:16;;;;;;;2.43;1.10;;;12.10;99.90;;;;;;5020642;28;20230;-62
2024/01/26 04:35:42;;;;;;;0.70;0.70;;;12.10;99.90;;;;;;5023478;28;20202;-62
2024/01/26 04:38:09;;;;;;;1.07;0.60;;;12.10;99.90;;;;;;5024187;28;20206;-62
2024/01/26 04:40:38;;;;;;;0.90;0.70;;;12.10;99.90;;;;;;5022037;28;20237;-62
2024/01/26 04:43:05;;;;;;;0.93;0.73;;;12.20;99.90;;;;;;5020649;28;20627;-62
2024/01/26 04:45:31;;;;;;;0.97;0.73;;;12.20;99.90;;;;;;5021969;28;20210;-62
2024/01/26 04:47:58;;;;;;;1.37;0.77;;;12.20;99.90;;;;;;5024394;28;20213;-63
2024/01/26 04:50:25;;;;;;;0.90;0.70;;;12.20;99.90;;;;;;5023440;28;20224;-63
2024/01/26 04:52:52;;;;;;;0.60;0.60;;;12.20;99.90;;;;;;5020532;28;20257;-63
2024/01/26 04:55:18;;;;;;;1.87;0.93;;;12.20;99.90;;;;;;5020680;28;20246;-62
2024/01/26 04:57:46;;;;;;;1.03;0.80;;;12.20;99.90;;;;;;5023129;28;20676;-62
2024/01/26 05:00:14;;;;;;;3.57;0.80;;;12.20;99.90;;;;;;5023448;28;20226;-62
2024/01/26 05:02:41;;;;;;;1.30;0.87;;;12.10;99.90;;;;;;5021361;28;20202;-62
2024/01/26 05:05:07;;;;;;;1.30;0.83;;;12.10;99.90;;;;;;5020404;28;20301;-62
2024/01/26 05:07:34;;;;;;;3.03;0.80;;;12.00;99.90;;;;;;5021711;28;20210;-62
2024/01/26 05:10:01;;;;;;;1.03;0.70;;;12.00;99.90;;;;;;5023738;28;20222;-62
2024/01/26 05:12:28;;;;;;;1.57;0.90;;;12.00;99.90;;;;;;5022689;28;20750;-62
2024/01/26 05:14:56;;;;;;;1.33;0.77;;;12.00;99.90;;;;;;5019962;28;20226;-62
2024/01/26 05:17:22;;;;;;;0.90;0.80;;;11.90;99.90;;;;;;5020302;28;20207;-63
2024/01/26 05:19:49;;;;;;;0.70;0.57;;;12.00;99.90;;;;;;5023396;28;20734;-62
2024/01/26 05:22:17;;;;;;;4.20;0.70;;;12.10;99.90;;;;;;5024543;28;20682;-62
2024/01/26 05:24:44;;;;;;;0.70;0.60;;;12.20;99.90;;;;;;5020515;28;20199;-61
2024/01/26 05:27:11;;;;;;;1.10;0.50;;;12.10;99.90;;;;;;5019738;28;20562;-62
2024/01/26 05:29:38;;;;;;;1.30;0.73;;;12.10;99.90;;;;;;5020149;28;20226;-62
2024/01/26 05:32:07;;;;;;;0.67;0.60;;;12.10;99.90;;;;;;5020214;28;20222;-62
2024/01/26 05:34:34;;;;;;;1.43;0.93;;;12.10;99.90;;;;;;5021549;28;20227;-62
2024/01/26 05:37:00;;;;;;;1.77;0.87;;;12.20;99.90;;;;;;5023272;28;20205;-62
2024/01/26 05:39:29;;;;;;;1.40;0.93;;;12.20;99.90;;;;;;5022622;28;20279;-62
2024/01/26 05:41:55;;;;;;;8.00;4.50;;;12.20;99.90;;;;;;5019776;28;20294;-62
2024/01/26 05:44:22;;;;;;;1.40;1.07;;;12.30;99.90;;;;;;5020020;28;20195;-62
2024/01/26 05:46:49;;;;;;;1.23;0.80;;;12.30;99.90;;;;;;5011446;28;20739;-62
2024/01/26 05:49:17;;;;;;;1.50;1.00;;;12.30;99.90;;;;;;5019766;28;20218;-61
2024/01/26 05:51:44;;;;;;;3.67;2.30;;;12.30;99.90;;;;;;5022506;28;22334;-61
2024/01/26 05:54:11;;;;;;;2.83;1.10;;;12.30;99.90;;;;;;5023581;28;20218;-61
2024/01/26 05:56:40;;;;;;;1.77;1.23;;;12.40;99.90;;;;;;5020755;28;20206;-61
2024/01/26 05:59:07;;;;;;;1.40;1.00;;;12.40;99.90;;;;;;5019622;28;20350;-60
2024/01/26 06:01:34;;;;;;;3.20;1.40;;;12.50;99.90;;;;;;5021100;28;20401;-62
2024/01/26 06:04:01;;;;;;;0.73;0.73;;;12.50;99.90;;;;;;5023051;28;20194;-62
2024/01/26 06:06:29;;;;;;;2.73;0.90;;;12.50;99.90;;;;;;5022216;28;20290;-62
2024/01/26 06:08:56;;;;;;;3.20;1.20;;;12.40;99.90;;;;;;5019466;28;20227;-62
2024/01/26 06:11:25;;;;;;;3.90;1.97;;;12.30;99.90;;;;;;5019740;28;20211;-62
2024/01/26 06:13:51;;;;;;;1.87;0.90;;;12.20;99.90;;;;;;5011727;28;20313;-62
2024/01/26 06:16:18;;;;;;;2.33;1.00;;;12.10;99.90;;;;;;5019438;28;20262;-63
2024/01/26 06:18:45;;;;;;;2.30;1.20;;;12.10;99.90;;;;;;5022190;28;20241;-63
2024/01/26 06:21:12;;;;;;;1.17;1.00;;;12.10;99.90;;;;;;5022957;28;20206;-62
2024/01/26 06:23:40;;;;;;;0.97;0.90;;;12.20;99.90;;;;;;5020729;28;20723;-63
2024/01/26 06:26:07;;;;;;;0.83;0.80;;;12.20;99.90;;;;;;5022346;28;20203;-63
2024/01/26 06:28:33;;;;;;;1.87;1.00;;;12.30;99.90;;;;;;5024175;28;20219;-63
2024/01/26 06:31:00;;;;;;;2.03;0.90;;;12.40;99.90;;;;;;5026564;28;20206;-63
2024/01/26 06:33:27;;;;;;;3.97;1.07;;;12.40;99.90;;;;;;5026018;28;20209;-63
2024/01/26 06:35:54;;;;;;;1.77;1.50;;;12.40;99.90;;;;;;5022675;28;20219;-63
2024/01/26 06:38:20;;;;;;;3.07;2.20;;;12.40;99.90;;;;;;5022816;28;20683;-63
2024/01/26 06:40:48;;;;;;;2.43;2.00;;;12.40;99.90;;;;;;5026124;28;20209;-63
2024/01/26 06:43:16;;;;;;;1.40;0.97;;;12.40;99.90;;;;;;5026202;28;20210;-61
2024/01/26 06:45:43;;;;;;;1.17;0.90;;;12.40;99.90;;;;;;5023572;28;20203;-61
2024/01/26 06:48:10;;;;;;;1.57;0.90;;;12.50;99.90;;;;;;5022729;28;20286;-62
2024/01/26 06:50:38;;;;;;;1.43;1.03;;;12.50;99.90;;;;;;5024000;28;20226;-62
2024/01/26 06:53:04;;;;;;;1.13;0.90;;;12.50;99.90;;;;;;5026098;28;20577;-62
2024/01/26 06:55:31;;;;;;;2.17;1.23;;;12.60;99.90;;;;;;5025045;28;20279;-61
2024/01/26 06:57:59;;;;;;;3.63;1.60;;;12.60;99.90;;;;;;5022311;28;20210;-62
2024/01/26 07:00:27;;;;;;;1.20;0.80;;;12.70;99.90;;;;;;5022123;28;20227;-62
2024/01/26 07:02:54;;;;;;;1.30;1.10;;;12.60;99.90;;;;;;5025855;28;20605;-62
2024/01/26 07:05:20;;;;;;;1.53;1.10;;;12.70;99.90;;;;;;5025879;28;20201;-62
2024/01/26 07:07:47;;;;;;;2.67;0.93;;;12.70;99.90;;;;;;5022499;28;20214;-62
2024/01/26 07:10:14;;;;;;;1.30;0.80;;;12.70;99.90;;;;;;5022347;28;20607;-63
2024/01/26 07:12:41;;;;;;;1.93;0.90;;;12.60;99.90;;;;;;5024108;28;20627;-62
2024/01/26 07:15:10;;;;;;;1.40;0.80;;;12.60;99.90;;;;;;5025610;28;20222;-62
2024/01/26 07:17:37;;;;;;;1.53;1.00;;;12.50;99.90;;;;;;5023646;28;20280;-62
2024/01/26 07:20:04;;;;;;;1.30;1.10;;;12.50;99.90;;;;;;5021885;28;20716;-62
2024/01/26 07:22:31;;;;;;;2.03;0.93;;;12.50;99.90;;;;;;5022794;28;20215;-62
2024/01/26 07:24:58;;;;;;;5.53;1.30;;;12.70;99.90;;;;;;5025586;28;20257;-63
2024/01/26 07:27:24;;;;;;;10.13;6.40;;;12.70;99.90;;;;;;5025084;28;20682;-61
2024/01/26 07:29:52;;;;;;;3.10;2.33;;;12.80;99.90;;;;;;5021832;28;20218;-62
2024/01/26 07:32:20;;;;;;;1.20;0.83;;;12.80;99.90;;;;;;5021731;28;20207;-62
2024/01/26 07:34:46;;;;;;;2.83;1.30;;;12.90;99.90;;;;;;5024472;28;20708;-62
2024/01/26 07:37:13;;;;;;;2.00;0.90;;;12.80;99.90;;;;;;5023881;28;20199;-62
2024/01/26 07:39:40;;;;;;;3.33;1.00;;;12.90;99.90;;;;;;5023465;28;20317;-62
2024/01/26 07:42:06;;;;;;;1.33;0.90;;;12.90;99.90;;;;;;5021685;28;20258;-62
2024/01/26 07:44:33;;;;;;;1.37;0.80;;;12.90;99.90;;;;;;5022378;28;20207;-62
2024/01/26 07:47:00;;;;;;;1.30;0.90;;;12.90;99.90;;;;;;5024756;28;20778;-62
2024/01/26 07:49:28;;;;;;;3.10;1.97;;;13.00;99.90;;;;;;5024776;28;20222;-62
2024/01/26 07:51:54;;;;;;;1.57;0.93;;;13.00;99.90;;;;;;5025142;28;20202;-62
2024/01/26 07:54:21;;;;;;;2.27;0.70;;;13.00;99.90;;;;;;5024660;28;20226;-62
2024/01/26 07:56:48;;;;;;;1.13;0.70;;;12.90;99.90;;;;;;5021807;28;20597;-62
2024/01/26 07:59:14;;;;;;;2.63;0.90;;;12.90;99.90;;;;;;5021217;28;20227;-62
2024/01/26 08:01:41;;;;;;;2.20;0.70;;;12.90;99.90;;;;;;5023567;28;20221;-61
2024/01/26 08:04:08;;;;;;;2.37;2.03;;;12.90;99.90;;;;;;5024702;28;20683;-62
2024/01/26 08:06:36;;;;;;;1.63;0.90;;;13.00;99.90;;;;;;5023673;28;20260;-62
2024/01/26 08:09:03;;;;;;;5.70;2.40;;;13.00;99.90;;;;;;5021197;28;20233;-61
2024/01/26 08:11:29;;;;;;;1.67;1.10;;;13.00;99.90;;;;;;5021235;28;20987;-62
2024/01/26 08:13:56;;;;;;;1.87;1.30;;;13.10;99.90;;;;;;5024384;28;20208;-62
2024/01/26 08:16:23;;;;;;;3.17;0.90;;;13.30;99.90;;;;;;5024312;28;20295;-62
2024/01/26 08:18:50;;;;;;;1.73;0.70;;;13.40;99.90;;;;;;5021136;28;20249;-62
2024/01/26 08:21:16;;;;;;;1.70;0.77;;;13.50;99.90;;;;;;5021042;28;20623;-62
2024/01/26 08:23:44;;;;;;;0.67;0.67;;;13.70;99.90;;;;;;5022961;28;20215;-63
2024/01/26 08:26:11;;;;;;;0.80;0.70;;;13.80;99.90;;;;;;5024028;28;20297;-62
2024/01/26 08:28:37;;;;;;;3.10;0.83;;;13.90;99.90;;;;;;5022789;28;20211;-62
2024/01/26 08:31:05;;;;;;;1.00;0.80;;;13.90;99.90;;;;;;5020794;28;20581;-62
2024/01/26 08:33:31;;;;;;;1.13;0.90;;;13.90;99.90;;;;;;5020995;28;20627;-62
2024/01/26 08:35:58;;;;;;;1.37;0.80;;;14.00;99.90;;;;;;5023879;28;20214;-62
2024/01/26 08:38:25;;;;;;;1.00;0.80;;;14.10;99.90;;;;;;5023864;28;20753;-62
2024/01/26 08:40:53;;;;;;;0.60;0.57;;;14.10;99.90;;;;;;5020658;28;20210;-62
2024/01/26 08:43:20;;;;;;;1.37;0.80;;;14.10;99.90;;;;;;5020267;28;20298;-62
2024/01/26 08:45:48;;;;;;;1.40;0.90;;;14.10;99.90;;;;;;5022784;28;20261;-62
2024/01/26 08:48:14;;;;;;;3.13;1.13;;;14.20;99.90;;;;;;5023608;28;20205;-62
2024/01/26 08:50:41;;;;;;;1.70;0.90;;;14.10;99.90;;;;;;5021734;28;20740;-62
2024/01/26 08:53:09;;;;;;;1.07;0.77;;;14.10;99.90;;;;;;5020439;28;20653;-62
2024/01/26 08:55:35;;;;;;;1.57;1.20;;;14.20;99.90;;;;;;5020983;28;20269;-62
2024/01/26 08:58:04;;;;;;;1.90;0.90;;;14.20;99.90;;;;;;5023517;28;20552;-62
2024/01/26 09:00:30;;;;;;;1.70;0.90;;;14.20;99.90;;;;;;5023182;28;20746;-62
2024/01/26 09:02:57;;;;;;;2.78;0.80;;;14.20;99.90;;;;;;5020383;28;20209;-62
2024/01/26 09:05:24;;;;;;;1.03;0.93;;;14.20;99.90;;;;;;5020350;28;20201;-59
2024/01/26 09:07:50;;;;;;;2.03;1.00;;;14.20;99.90;;;;;;5022878;28;20199;-60
2024/01/26 09:10:19;;;;;;;2.20;0.87;;;14.30;99.90;;;;;;5023493;28;20226;-60
2024/01/26 09:12:45;;;;;;;1.73;1.30;;;14.40;99.90;;;;;;5021450;28;20671;-60
2024/01/26 09:15:14;;;;;;;2.20;1.07;;;14.60;99.90;;;;;;5020238;28;20215;-59
2024/01/26 09:17:40;;;;;;;1.50;0.87;;;14.70;99.90;;;;;;5021575;28;20215;-60
2024/01/26 09:20:09;;;;;;;1.77;1.00;;;14.80;99.90;;;;;;5023202;28;20261;-60
2024/01/26 09:22:35;;;;;;;1.87;0.77;;;14.90;99.90;;;;;;5022366;28;20237;-60
2024/01/26 09:25:02;;;;;;;0.80;0.80;;;14.90;99.90;;;;;;5020245;28;20206;-60
2024/01/26 09:27:29;;;;;;;2.22;0.90;;;14.80;99.90;;;;;;5019901;28;20207;-60
2024/01/26 09:29:56;;;;;;;1.50;0.90;;;14.80;99.90;;;;;;5012266;28;20226;-60
2024/01/26 09:32:24;;;;;;;1.60;1.00;;;14.70;99.90;;;;;;5020217;28;20249;-60
2024/01/26 09:34:50;;;;;;;2.37;0.90;;;14.70;99.90;;;;;;5022665;28;20217;-60
2024/01/26 09:37:17;;;;;;;2.67;1.00;;;14.70;99.90;;;;;;5022980;28;20209;-60
2024/01/26 09:39:44;;;;;;;1.83;1.20;;;14.70;99.90;;;;;;5021535;28;20288;-59
2024/01/26 09:42:10;;;;;;;2.70;1.00;;;14.80;99.90;;;;;;5019862;28;20207;-59
2024/01/26 09:44:37;;;;;;;1.73;0.90;;;14.90;99.90;;;;;;5020519;28;20673;-60
2024/01/26 09:47:08;;;;;;;2.73;0.87;;;15.00;99.90;;;;;;5022958;28;20815;-60
2024/01/26 09:49:37;;;;;;;1.95;1.17;;;15.10;99.90;;;;;;5022524;28;20265;-60
2024/01/26 09:52:04;;;;;;;1.53;0.80;;;15.30;99.90;;;;;;5020136;28;20233;-60
2024/01/26 09:54:31;;;;;;;1.13;0.70;;;15.40;99.90;;;;;;5019800;28;20221;-60
2024/01/26 09:56:58;;;;;;;3.57;1.10;;;15.50;99.90;;;;;;5022948;28;20268;-59
2024/01/26 09:59:25;;;;;;;2.35;1.17;;;15.70;99.90;;;;;;5023592;28;20226;-61
2024/01/26 10:01:52;;;;;;;5.45;3.85;;;15.70;99.90;;;;;;5024039;28;20282;-60
2024/01/26 10:04:19;;;;;;;1.48;1.38;;;15.80;99.90;;;;;;5023534;28;20444;-60
2024/01/26 10:06:49;;;;;;;1.30;1.20;;;15.70;99.90;;;;;;5024994;28;20639;-61
2024/01/26 10:09:17;;;;;;;5.18;1.25;;;15.80;99.90;;;;;;5026935;28;20288;-61
2024/01/26 10:11:44;;;;;;;3.38;1.27;;;15.80;99.90;;;;;;5025113;28;20272;-60
2024/01/26 10:14:20;;;;;;;2.53;1.40;;;15.90;99.90;;;;;;5023521;28;20211;-61
2024/01/26 10:16:54;;;;;;;2.13;1.30;;;15.80;99.90;;;;;;5025056;28;20281;-60
2024/01/26 10:19:23;;;;;;;1.70;0.90;;;15.70;99.90;;;;;;5026734;28;20302;-61
2024/01/26 10:21:51;;;;;;;2.60;1.23;;;15.70;99.90;;;;;;5024167;28;20210;-61
2024/01/26 10:24:19;;;;;;;2.10;1.10;;;15.60;99.90;;;;;;5016684;28;20215;-61
2024/01/26 10:26:45;;;;;;;1.63;1.10;;;15.60;99.90;;;;;;5023127;28;20435;-62
2024/01/26 10:29:13;;;;;;;1.55;1.05;;;15.50;99.90;;;;;;5026308;28;20229;-61
2024/01/26 10:31:41;;;;;;;1.10;0.85;;;15.50;99.90;;;;;;5025496;28;20217;-65
2024/01/26 10:34:13;;;;;;;1.98;1.00;;;15.40;99.90;;;;;;5022788;28;20669;-63
2024/01/26 10:36:42;;;;;;;1.63;0.88;;;15.50;99.90;;;;;;5023784;28;20227;-63
2024/01/26 10:39:20;;;;;;;2.70;0.88;;;15.40;99.90;;;;;;5025790;28;20719;-64
2024/01/26 10:41:49;;;;;;;1.17;0.80;;;15.30;99.90;;;;;;5023901;28;20213;-63
2024/01/26 10:44:16;;;;;;;1.65;0.93;;;15.40;99.90;;;;;;5022716;28;20696;-64
2024/01/26 10:46:43;;;;;;;2.78;1.10;;;15.40;99.90;;;;;;5024011;28;20294;-63
2024/01/26 10:49:12;;;;;;;1.73;1.30;;;15.40;99.90;;;;;;5025720;28;20226;-63
2024/01/26 10:51:40;;;;;;;2.45;1.00;;;15.50;99.90;;;;;;5025114;28;20214;-64
2024/01/26 10:54:11;;;;;;;1.58;1.02;;;15.40;99.90;;;;;;5022632;28;20254;-64
2024/01/26 10:56:38;;;;;;;1.98;1.00;;;15.40;99.90;;;;;;5022559;28;20223;-63
2024/01/26 10:59:06;;;;;;;1.33;1.10;;;15.40;99.90;;;;;;5025859;28;20226;-63
2024/01/26 11:01:34;;;;;;;1.30;0.98;;;15.40;99.90;;;;;;5025627;28;20321;-65
2024/01/26 11:04:01;;;;;;;1.98;1.30;;;15.50;99.90;;;;;;5025903;28;20225;-63
2024/01/26 11:06:29;;;;;;;1.88;0.98;;;15.50;99.90;;;;;;5025366;28;20203;-63
2024/01/26 11:08:59;;;;;;;1.67;0.80;;;15.50;99.90;;;;;;5022893;28;20310;-62
2024/01/26 11:11:31;;;;;;;1.48;1.00;;;15.60;99.90;;;;;;5022611;28;20211;-62
2024/01/26 11:14:01;;;;;;;2.30;1.23;;;15.60;99.90;;;;;;5025915;28;20290;-63
2024/01/26 11:16:32;;;;;;;5.65;1.90;;;15.60;99.90;;;;;;5025748;28;20230;-63
2024/01/26 11:18:59;;;;;;;1.90;1.10;;;15.60;99.90;;;;;;5021974;28;20237;-63
2024/01/26 11:21:36;;;;;;;9.82;5.78;;;15.70;99.90;;;;;;5021804;28;20207;-64
2024/01/26 11:24:12;;;;;;;6.32;3.55;;;15.60;99.90;;;;;;5026654;28;20213;-63
2024/01/26 11:26:40;;;;;;;2.90;1.23;;;15.50;99.90;;;;;;5024382;28;20291;-64
2024/01/26 11:29:12;;;;;;;2.00;1.40;;;15.40;99.90;;;;;;5022385;28;20223;-64
2024/01/26 11:31:39;;;;;;;2.78;1.17;;;15.20;99.90;;;;;;5022074;28;20385;-63
2024/01/26 11:34:05;;;;;;;2.28;1.48;;;15.20;99.90;;;;;;5025120;28;20586;-62
2024/01/26 11:36:33;;;;;;;3.15;1.65;;;15.10;99.90;;;;;;5024976;28;20226;-63
2024/01/26 11:39:00;;;;;;;1.80;1.00;;;15.10;99.90;;;;;;5024978;28;20229;-64
2024/01/26 11:41:28;;;;;;;2.13;1.10;;;15.10;99.90;;;;;;5025252;28;20265;-64
2024/01/26 11:44:01;;;;;;;2.13;1.20;;;15.00;99.90;;;;;;5022369;28;20588;-65
2024/01/26 11:46:28;;;;;;;1.97;1.10;;;14.90;99.90;;;;;;5028861;28;20209;-64
2024/01/26 11:48:58;;;;;;;2.20;1.10;;;14.90;99.90;;;;;;5033265;28;20230;-63
2024/01/26 11:51:24;;;;;;;1.30;0.80;;;14.80;99.90;;;;;;5033175;28;20297;-62
2024/01/26 11:53:51;;;;;;;1.20;0.80;;;14.80;99.90;;;;;;5033376;28;20214;-63
2024/01/26 11:56:18;;;;;;;1.80;1.23;;;14.70;99.90;;;;;;5032901;28;20249;-65
2024/01/26 11:58:45;;;;;;;2.30;1.10;;;14.60;99.90;;;;;;5033007;28;20268;-64
2024/01/26 12:01:13;;;;;;;3.73;1.27;;;14.60;99.90;;;;;;5033046;28;20244;-64
2024/01/26 12:03:40;;;;;;;4.13;1.43;;;14.50;99.90;;;;;;5032709;28;20210;-64
2024/01/26 12:06:07;;;;;;;1.17;0.70;;;14.60;99.90;;;;;;5032728;28;20714;-63
2024/01/26 12:08:34;;;;;;;2.70;1.10;;;14.60;99.90;;;;;;5032948;28;20206;-64
2024/01/26 12:11:01;;;;;;;2.07;1.27;;;14.50;99.90;;;;;;5033015;28;20571;-64
2024/01/26 12:13:28;;;;;;;1.73;1.20;;;14.40;99.90;;;;;;5033314;28;20210;-64
2024/01/26 12:15:55;;;;;;;4.10;1.40;;;14.40;99.90;;;;;;5032092;28;20287;-65
2024/01/26 12:18:24;;;;;;;2.70;1.10;;;14.40;99.90;;;;;;5032874;28;20280;-64
2024/01/26 12:20:51;;;;;;;1.83;1.10;;;14.40;99.90;;;;;;5032701;28;20210;-64
2024/01/26 12:23:20;;;;;;;4.27;1.80;;;14.40;99.90;;;;;;5032278;28;20298;-65
2024/01/26 12:25:49;;;;;;;2.87;1.57;;;14.40;99.90;;;;;;5032241;28;20210;-65
2024/01/26 12:28:16;;;;;;;3.20;1.60;;;14.40;99.90;;;;;;5032102;28;20209;-61
2024/01/26 12:30:45;;;;;;;2.13;1.13;;;14.30;99.90;;;;;;5032963;28;20232;-62
2024/01/26 12:33:12;;;;;;;4.10;2.87;;;14.40;99.90;;;;;;5032632;28;20216;-62
2024/01/26 12:35:40;;;;;;;1.83;1.10;;;14.40;99.90;;;;;;5032553;28;20202;-62
2024/01/26 12:38:07;;;;;;;3.47;1.10;;;14.50;99.90;;;;;;5032582;28;20297;-60
2024/01/26 12:40:34;;;;;;;2.23;1.07;;;14.50;99.90;;;;;;5032231;28;20716;-62
2024/01/26 12:43:01;;;;;;;2.37;1.20;;;14.50;99.90;;;;;;5032220;28;20210;-62
2024/01/26 12:45:28;;;;;;;4.77;1.17;;;14.40;99.90;;;;;;5032467;28;20288;-62